<?xml version="1.0" encoding="utf-8"?>
<gpx xmlns:xsi="http://www.w3.org/2001/XMLSchema-instance" xmlns:xsd="http://www.w3.org/2001/XMLSchema" version="1.1" creator="Shapelink.com" xmlns="http://www.topografix.com/GPX/1/1" xmlns:gpxtpx="http://www.garmin.com/xmlschemas/TrackPointExtension/v1">
  <metadata>
    <name>Cykling 6.52 km, 2019-07-14</name>
    <desc></desc>
    <author><name>Marian Moron</name></author> 
    <time>2019-07-14T12:17:23Z</time>
  </metadata>
  <trk>
    <name>Cykling 6.52 km, 2019-07-14</name>
    <trkseg>
      <trkpt lat="51.214516081352" lon="4.409839714283">
        <ele>22.6</ele>
        <time>2019-07-14T12:17:23Z</time>
      </trkpt>
      <trkpt lat="51.214382892961" lon="4.410654770239">
        <ele>16</ele>
        <time>2019-07-14T12:17:46Z</time>
      </trkpt>
      <trkpt lat="51.213981819046" lon="4.411214429702">
        <ele>5.8</ele>
        <time>2019-07-14T12:18:07Z</time>
      </trkpt>
      <trkpt lat="51.213974359155" lon="4.411269582604">
        <ele>5</ele>
        <time>2019-07-14T12:18:08Z</time>
      </trkpt>
      <trkpt lat="51.213969832929" lon="4.411277796866">
        <ele>4.4</ele>
        <time>2019-07-14T12:18:10Z</time>
      </trkpt>
      <trkpt lat="51.213960193744" lon="4.41129087263">
        <ele>3.4</ele>
        <time>2019-07-14T12:18:13Z</time>
      </trkpt>
      <trkpt lat="51.213957511536" lon="4.411310821552">
        <ele>2.4</ele>
        <time>2019-07-14T12:18:20Z</time>
      </trkpt>
      <trkpt lat="51.21394711798" lon="4.411391958344">
        <ele>2.2</ele>
        <time>2019-07-14T12:18:25Z</time>
      </trkpt>
      <trkpt lat="51.213772020089" lon="4.411678200229">
        <ele>0.8</ele>
        <time>2019-07-14T12:18:41Z</time>
      </trkpt>
      <trkpt lat="51.214213746219" lon="4.412262670116">
        <ele>0</ele>
        <time>2019-07-14T12:18:58Z</time>
      </trkpt>
      <trkpt lat="51.21470148898" lon="4.412678244718">
        <ele>2</ele>
        <time>2019-07-14T12:19:12Z</time>
      </trkpt>
      <trkpt lat="51.215191075759" lon="4.413178560329">
        <ele>10.4</ele>
        <time>2019-07-14T12:19:25Z</time>
      </trkpt>
      <trkpt lat="51.215650655336" lon="4.413701171794">
        <ele>22.2</ele>
        <time>2019-07-14T12:19:41Z</time>
      </trkpt>
      <trkpt lat="51.215766912289" lon="4.413827906122">
        <ele>27.8</ele>
        <time>2019-07-14T12:19:46Z</time>
      </trkpt>
      <trkpt lat="51.215781664433" lon="4.413862607188">
        <ele>30.4</ele>
        <time>2019-07-14T12:19:49Z</time>
      </trkpt>
      <trkpt lat="51.215817203689" lon="4.413955143364">
        <ele>34.2</ele>
        <time>2019-07-14T12:19:54Z</time>
      </trkpt>
      <trkpt lat="51.21586070575" lon="4.413925722895">
        <ele>38.8</ele>
        <time>2019-07-14T12:20:03Z</time>
      </trkpt>
      <trkpt lat="51.216423550335" lon="4.414065113892">
        <ele>46.2</ele>
        <time>2019-07-14T12:20:19Z</time>
      </trkpt>
      <trkpt lat="51.216772069737" lon="4.414265776578">
        <ele>54.4</ele>
        <time>2019-07-14T12:20:33Z</time>
      </trkpt>
      <trkpt lat="51.21676930371" lon="4.414208276744">
        <ele>56.8</ele>
        <time>2019-07-14T12:20:40Z</time>
      </trkpt>
      <trkpt lat="51.216993016621" lon="4.414223112707">
        <ele>57.6</ele>
        <time>2019-07-14T12:20:47Z</time>
      </trkpt>
      <trkpt lat="51.217496517354" lon="4.414760392497">
        <ele>58</ele>
        <time>2019-07-14T12:20:59Z</time>
      </trkpt>
      <trkpt lat="51.217728612165" lon="4.414998689914">
        <ele>50.4</ele>
        <time>2019-07-14T12:21:05Z</time>
      </trkpt>
      <trkpt lat="51.217900524934" lon="4.414943369374">
        <ele>42.4</ele>
        <time>2019-07-14T12:21:11Z</time>
      </trkpt>
      <trkpt lat="51.218445935167" lon="4.415341509624">
        <ele>18.6</ele>
        <time>2019-07-14T12:21:23Z</time>
      </trkpt>
      <trkpt lat="51.218969217184" lon="4.415649544449">
        <ele>8.2</ele>
        <time>2019-07-14T12:21:37Z</time>
      </trkpt>
      <trkpt lat="51.219490319907" lon="4.415917094697">
        <ele>3.4</ele>
        <time>2019-07-14T12:21:54Z</time>
      </trkpt>
      <trkpt lat="51.219693078068" lon="4.416005859018">
        <ele>2.4</ele>
        <time>2019-07-14T12:22:02Z</time>
      </trkpt>
      <trkpt lat="51.21971051242" lon="4.415929332271">
        <ele>2.2</ele>
        <time>2019-07-14T12:22:05Z</time>
      </trkpt>
      <trkpt lat="51.219873708013" lon="4.415323656177">
        <ele>9.8</ele>
        <time>2019-07-14T12:22:20Z</time>
      </trkpt>
      <trkpt lat="51.220421129902" lon="4.415536556437">
        <ele>9</ele>
        <time>2019-07-14T12:22:39Z</time>
      </trkpt>
      <trkpt lat="51.22054702604" lon="4.415625907491">
        <ele>12.6</ele>
        <time>2019-07-14T12:22:42Z</time>
      </trkpt>
      <trkpt lat="51.220612740136" lon="4.415834784439">
        <ele>12</ele>
        <time>2019-07-14T12:22:45Z</time>
      </trkpt>
      <trkpt lat="51.221017837363" lon="4.416219346011">
        <ele>0.4</ele>
        <time>2019-07-14T12:23:01Z</time>
      </trkpt>
      <trkpt lat="51.221096627223" lon="4.416189003533">
        <ele>0</ele>
        <time>2019-07-14T12:23:03Z</time>
      </trkpt>
      <trkpt lat="51.221502897916" lon="4.41609118676">
        <ele>6.8</ele>
        <time>2019-07-14T12:23:12Z</time>
      </trkpt>
      <trkpt lat="51.222072112745" lon="4.415850290954">
        <ele>6.8</ele>
        <time>2019-07-14T12:23:23Z</time>
      </trkpt>
      <trkpt lat="51.222521885499" lon="4.415720036228">
        <ele>4.2</ele>
        <time>2019-07-14T12:23:32Z</time>
      </trkpt>
      <trkpt lat="51.222778539277" lon="4.415753731466">
        <ele>5.4</ele>
        <time>2019-07-14T12:23:37Z</time>
      </trkpt>
      <trkpt lat="51.223328308098" lon="4.41550864471">
        <ele>5.4</ele>
        <time>2019-07-14T12:23:47Z</time>
      </trkpt>
      <trkpt lat="51.223887632285" lon="4.415253751131">
        <ele>0</ele>
        <time>2019-07-14T12:23:59Z</time>
      </trkpt>
      <trkpt lat="51.224068932782" lon="4.415137913273">
        <ele>0</ele>
        <time>2019-07-14T12:24:03Z</time>
      </trkpt>
      <trkpt lat="51.224187788124" lon="4.415024254709">
        <ele>0</ele>
        <time>2019-07-14T12:24:06Z</time>
      </trkpt>
      <trkpt lat="51.224330867157" lon="4.414964575581">
        <ele>0</ele>
        <time>2019-07-14T12:24:10Z</time>
      </trkpt>
      <trkpt lat="51.224408483551" lon="4.414920738244">
        <ele>0</ele>
        <time>2019-07-14T12:25:20Z</time>
      </trkpt>
      <trkpt lat="51.224482747185" lon="4.41490179515">
        <ele>0</ele>
        <time>2019-07-14T12:25:28Z</time>
      </trkpt>
      <trkpt lat="51.22502044607" lon="4.414769025854">
        <ele>0</ele>
        <time>2019-07-14T12:25:42Z</time>
      </trkpt>
      <trkpt lat="51.225478265448" lon="4.414610607944">
        <ele>0</ele>
        <time>2019-07-14T12:25:51Z</time>
      </trkpt>
      <trkpt lat="51.225710360259" lon="4.414499631588">
        <ele>0</ele>
        <time>2019-07-14T12:25:56Z</time>
      </trkpt>
      <trkpt lat="51.226043708422" lon="4.414316151797">
        <ele>0</ele>
        <time>2019-07-14T12:26:07Z</time>
      </trkpt>
      <trkpt lat="51.226041780585" lon="4.414317241444">
        <ele>0</ele>
        <time>2019-07-14T12:26:25Z</time>
      </trkpt>
      <trkpt lat="51.226114200201" lon="4.414292850115">
        <ele>0</ele>
        <time>2019-07-14T12:26:33Z</time>
      </trkpt>
      <trkpt lat="51.22632634609" lon="4.414208695839">
        <ele>0</ele>
        <time>2019-07-14T12:26:39Z</time>
      </trkpt>
      <trkpt lat="51.226888017209" lon="4.414097216569">
        <ele>0</ele>
        <time>2019-07-14T12:26:51Z</time>
      </trkpt>
      <trkpt lat="51.227435187641" lon="4.41384064661">
        <ele>0</ele>
        <time>2019-07-14T12:27:04Z</time>
      </trkpt>
      <trkpt lat="51.228002055538" lon="4.413675020266">
        <ele>0</ele>
        <time>2019-07-14T12:27:15Z</time>
      </trkpt>
      <trkpt lat="51.228528690315" lon="4.41346513749">
        <ele>3</ele>
        <time>2019-07-14T12:27:28Z</time>
      </trkpt>
      <trkpt lat="51.229090026158" lon="4.413260870587">
        <ele>9.6</ele>
        <time>2019-07-14T12:27:41Z</time>
      </trkpt>
      <trkpt lat="51.229177784651" lon="4.413217955259">
        <ele>9.6</ele>
        <time>2019-07-14T12:27:42Z</time>
      </trkpt>
      <trkpt lat="51.229262358022" lon="4.413145703281">
        <ele>9.6</ele>
        <time>2019-07-14T12:27:45Z</time>
      </trkpt>
      <trkpt lat="51.22939076873" lon="4.413028524319">
        <ele>8</ele>
        <time>2019-07-14T12:27:48Z</time>
      </trkpt>
      <trkpt lat="51.22978555622" lon="4.412936323419">
        <ele>3</ele>
        <time>2019-07-14T12:28:01Z</time>
      </trkpt>
      <trkpt lat="51.229812965033" lon="4.412960882386">
        <ele>1.8</ele>
        <time>2019-07-14T12:28:04Z</time>
      </trkpt>
      <trkpt lat="51.229837021086" lon="4.413002288972">
        <ele>4.6</ele>
        <time>2019-07-14T12:28:25Z</time>
      </trkpt>
      <trkpt lat="51.229812965033" lon="4.413078228986">
        <ele>4.2</ele>
        <time>2019-07-14T12:28:30Z</time>
      </trkpt>
      <trkpt lat="51.229739874865" lon="4.413157605579">
        <ele>18.2</ele>
        <time>2019-07-14T12:28:41Z</time>
      </trkpt>
      <trkpt lat="51.22968832618" lon="4.413268833392">
        <ele>40.8</ele>
        <time>2019-07-14T12:28:51Z</time>
      </trkpt>
      <trkpt lat="51.22987775712" lon="4.413228181177">
        <ele>48.2</ele>
        <time>2019-07-14T12:28:59Z</time>
      </trkpt>
      <trkpt lat="51.229500823077" lon="4.413672086601">
        <ele>48.4</ele>
        <time>2019-07-14T12:29:15Z</time>
      </trkpt>
      <trkpt lat="51.22953493741" lon="4.413824553362">
        <ele>44.6</ele>
        <time>2019-07-14T12:29:16Z</time>
      </trkpt>
      <trkpt lat="51.22974783767" lon="4.414668107778">
        <ele>24.6</ele>
        <time>2019-07-14T12:29:26Z</time>
      </trkpt>
      <trkpt lat="51.229827800996" lon="4.415515936963">
        <ele>13.4</ele>
        <time>2019-07-14T12:29:42Z</time>
      </trkpt>
      <trkpt lat="51.229881696613" lon="4.416424534923">
        <ele>9</ele>
        <time>2019-07-14T12:29:54Z</time>
      </trkpt>
      <trkpt lat="51.229952607487" lon="4.417319386567">
        <ele>7.8</ele>
        <time>2019-07-14T12:30:07Z</time>
      </trkpt>
      <trkpt lat="51.229951434021" lon="4.417531448637">
        <ele>8.8</ele>
        <time>2019-07-14T12:30:10Z</time>
      </trkpt>
      <trkpt lat="51.229940118456" lon="4.41774661201">
        <ele>10.2</ele>
        <time>2019-07-14T12:30:13Z</time>
      </trkpt>
      <trkpt lat="51.229987140915" lon="4.418645570785">
        <ele>14</ele>
        <time>2019-07-14T12:30:25Z</time>
      </trkpt>
      <trkpt lat="51.230071462829" lon="4.418801474125">
        <ele>11.2</ele>
        <time>2019-07-14T12:30:29Z</time>
      </trkpt>
      <trkpt lat="51.230201549917" lon="4.418734502744">
        <ele>7.6</ele>
        <time>2019-07-14T12:30:33Z</time>
      </trkpt>
      <trkpt lat="51.230354100497" lon="4.418709189406">
        <ele>6.4</ele>
        <time>2019-07-14T12:30:37Z</time>
      </trkpt>
      <trkpt lat="51.230420736602" lon="4.418785632334">
        <ele>6.2</ele>
        <time>2019-07-14T12:30:39Z</time>
      </trkpt>
      <trkpt lat="51.230436075479" lon="4.418989899237">
        <ele>3.6</ele>
        <time>2019-07-14T12:30:42Z</time>
      </trkpt>
      <trkpt lat="51.230283776356" lon="4.419778216932">
        <ele>0</ele>
        <time>2019-07-14T12:30:54Z</time>
      </trkpt>
      <trkpt lat="51.230175482208" lon="4.420620178787">
        <ele>0</ele>
        <time>2019-07-14T12:31:05Z</time>
      </trkpt>
      <trkpt lat="51.230170201611" lon="4.420704668339">
        <ele>0</ele>
        <time>2019-07-14T12:31:06Z</time>
      </trkpt>
      <trkpt lat="51.230136841649" lon="4.421597173051">
        <ele>0</ele>
        <time>2019-07-14T12:31:17Z</time>
      </trkpt>
      <trkpt lat="51.230137009287" lon="4.422534185652">
        <ele>0</ele>
        <time>2019-07-14T12:31:28Z</time>
      </trkpt>
      <trkpt lat="51.230174560199" lon="4.423471952624">
        <ele>0</ele>
        <time>2019-07-14T12:31:39Z</time>
      </trkpt>
      <trkpt lat="51.230226108884" lon="4.424334366315">
        <ele>0</ele>
        <time>2019-07-14T12:31:49Z</time>
      </trkpt>
      <trkpt lat="51.23012586136" lon="4.425170041745">
        <ele>0</ele>
        <time>2019-07-14T12:31:59Z</time>
      </trkpt>
      <trkpt lat="51.229994768444" lon="4.425857022269">
        <ele>0</ele>
        <time>2019-07-14T12:32:07Z</time>
      </trkpt>
      <trkpt lat="51.229929138167" lon="4.426008986116">
        <ele>0.8</ele>
        <time>2019-07-14T12:32:09Z</time>
      </trkpt>
      <trkpt lat="51.229789830989" lon="4.426174193365">
        <ele>1.2</ele>
        <time>2019-07-14T12:32:12Z</time>
      </trkpt>
      <trkpt lat="51.22971682464" lon="4.426307465575">
        <ele>0.6</ele>
        <time>2019-07-14T12:32:14Z</time>
      </trkpt>
      <trkpt lat="51.229668125801" lon="4.426466554037">
        <ele>0.2</ele>
        <time>2019-07-14T12:32:16Z</time>
      </trkpt>
      <trkpt lat="51.229472659893" lon="4.427285884762">
        <ele>0</ele>
        <time>2019-07-14T12:32:26Z</time>
      </trkpt>
      <trkpt lat="51.229293957785" lon="4.428141760571">
        <ele>0</ele>
        <time>2019-07-14T12:32:36Z</time>
      </trkpt>
      <trkpt lat="51.229049876857" lon="4.428942567297">
        <ele>0</ele>
        <time>2019-07-14T12:32:46Z</time>
      </trkpt>
      <trkpt lat="51.228843765936" lon="4.429835574923">
        <ele>0</ele>
        <time>2019-07-14T12:32:56Z</time>
      </trkpt>
      <trkpt lat="51.228684677474" lon="4.430581731661">
        <ele>0</ele>
        <time>2019-07-14T12:33:05Z</time>
      </trkpt>
      <trkpt lat="51.228487032272" lon="4.431430315217">
        <ele>0</ele>
        <time>2019-07-14T12:33:14Z</time>
      </trkpt>
      <trkpt lat="51.228317634073" lon="4.432322903748">
        <ele>0</ele>
        <time>2019-07-14T12:33:23Z</time>
      </trkpt>
      <trkpt lat="51.228072798774" lon="4.433167128716">
        <ele>0</ele>
        <time>2019-07-14T12:33:33Z</time>
      </trkpt>
      <trkpt lat="51.228054945327" lon="4.433244158377">
        <ele>0</ele>
        <time>2019-07-14T12:33:34Z</time>
      </trkpt>
      <trkpt lat="51.227928210999" lon="4.434167005567">
        <ele>0</ele>
        <time>2019-07-14T12:33:45Z</time>
      </trkpt>
      <trkpt lat="51.22772025606" lon="4.435012571639">
        <ele>0</ele>
        <time>2019-07-14T12:33:55Z</time>
      </trkpt>
      <trkpt lat="51.227354134668" lon="4.435713047022">
        <ele>0</ele>
        <time>2019-07-14T12:34:06Z</time>
      </trkpt>
      <trkpt lat="51.226934117659" lon="4.436300115298">
        <ele>0</ele>
        <time>2019-07-14T12:34:17Z</time>
      </trkpt>
      <trkpt lat="51.226899751869" lon="4.436362057539">
        <ele>0</ele>
        <time>2019-07-14T12:34:18Z</time>
      </trkpt>
      <trkpt lat="51.226856752722" lon="4.436504130744">
        <ele>0</ele>
        <time>2019-07-14T12:34:20Z</time>
      </trkpt>
      <trkpt lat="51.226850801573" lon="4.436667996889">
        <ele>0</ele>
        <time>2019-07-14T12:34:22Z</time>
      </trkpt>
      <trkpt lat="51.226879467671" lon="4.43685315306">
        <ele>0</ele>
        <time>2019-07-14T12:34:24Z</time>
      </trkpt>
      <trkpt lat="51.226996227538" lon="4.43769050487">
        <ele>0</ele>
        <time>2019-07-14T12:34:34Z</time>
      </trkpt>
      <trkpt lat="51.226969070182" lon="4.437772396033">
        <ele>0</ele>
        <time>2019-07-14T12:34:35Z</time>
      </trkpt>
      <trkpt lat="51.227190184704" lon="4.438413276107">
        <ele>0</ele>
        <time>2019-07-14T12:34:47Z</time>
      </trkpt>
      <trkpt lat="51.227542811237" lon="4.439076535854">
        <ele>0</ele>
        <time>2019-07-14T12:35:01Z</time>
      </trkpt>
      <trkpt lat="51.227909687" lon="4.439769970441">
        <ele>0</ele>
        <time>2019-07-14T12:35:16Z</time>
      </trkpt>
      <trkpt lat="51.22811671993" lon="4.440311525">
        <ele>0</ele>
        <time>2019-07-14T12:35:29Z</time>
      </trkpt>
      <trkpt lat="51.227875488848" lon="4.440628277001">
        <ele>1.4</ele>
        <time>2019-07-14T12:35:38Z</time>
      </trkpt>
      <trkpt lat="51.227898455254" lon="4.440730955276">
        <ele>0</ele>
        <time>2019-07-14T12:35:40Z</time>
      </trkpt>
      <trkpt lat="51.228059890648" lon="4.44091837456">
        <ele>0</ele>
        <time>2019-07-14T12:35:45Z</time>
      </trkpt>
      <trkpt lat="51.228214117608" lon="4.441214926182">
        <ele>0</ele>
        <time>2019-07-14T12:35:51Z</time>
      </trkpt>
      <trkpt lat="51.228270611614" lon="4.441321963045">
        <ele>0</ele>
        <time>2019-07-14T12:35:53Z</time>
      </trkpt>
      <trkpt lat="51.228379827771" lon="4.441560847195">
        <ele>0</ele>
        <time>2019-07-14T12:35:57Z</time>
      </trkpt>
      <trkpt lat="51.228483176598" lon="4.441712727223">
        <ele>0</ele>
        <time>2019-07-14T12:36:00Z</time>
      </trkpt>
      <trkpt lat="51.228888441463" lon="4.442371125468">
        <ele>0</ele>
        <time>2019-07-14T12:36:12Z</time>
      </trkpt>
      <trkpt lat="51.22925330557" lon="4.442790220468">
        <ele>0</ele>
        <time>2019-07-14T12:36:22Z</time>
      </trkpt>
      <trkpt lat="51.229316505096" lon="4.443075205068">
        <ele>0</ele>
        <time>2019-07-14T12:36:26Z</time>
      </trkpt>
      <trkpt lat="51.229429074013" lon="4.443487091634">
        <ele>0</ele>
        <time>2019-07-14T12:36:32Z</time>
      </trkpt>
      <trkpt lat="51.229551365934" lon="4.444319833399">
        <ele>0</ele>
        <time>2019-07-14T12:36:46Z</time>
      </trkpt>
      <trkpt lat="51.229825621702" lon="4.445145115273">
        <ele>0</ele>
        <time>2019-07-14T12:37:00Z</time>
      </trkpt>
      <trkpt lat="51.229903070458" lon="4.445418449032">
        <ele>0</ele>
        <time>2019-07-14T12:37:04Z</time>
      </trkpt>
      <trkpt lat="51.230164669557" lon="4.44619897156">
        <ele>0</ele>
        <time>2019-07-14T12:37:15Z</time>
      </trkpt>
      <trkpt lat="51.230433309452" lon="4.447015871534">
        <ele>1.6</ele>
        <time>2019-07-14T12:37:26Z</time>
      </trkpt>
      <trkpt lat="51.230704128641" lon="4.447877949949">
        <ele>6</ele>
        <time>2019-07-14T12:37:36Z</time>
      </trkpt>
      <trkpt lat="51.231135628853" lon="4.449480569229">
        <ele>11</ele>
        <time>2019-07-14T12:37:54Z</time>
      </trkpt>
      <trkpt lat="51.231354815538" lon="4.450285231629">
        <ele>14.2</ele>
        <time>2019-07-14T12:38:03Z</time>
      </trkpt>
      <trkpt lat="51.231455063062" lon="4.45086266072">
        <ele>14</ele>
        <time>2019-07-14T12:38:10Z</time>
      </trkpt>
      <trkpt lat="51.231575008051" lon="4.451751645034">
        <ele>11.6</ele>
        <time>2019-07-14T12:38:21Z</time>
      </trkpt>
      <trkpt lat="51.231728983554" lon="4.452632582724">
        <ele>10.8</ele>
        <time>2019-07-14T12:38:32Z</time>
      </trkpt>
      <trkpt lat="51.231908104757" lon="4.453520812667">
        <ele>13.8</ele>
        <time>2019-07-14T12:38:43Z</time>
      </trkpt>
      <trkpt lat="51.232025283719" lon="4.454383477815">
        <ele>9.6</ele>
        <time>2019-07-14T12:38:54Z</time>
      </trkpt>
      <trkpt lat="51.232186719113" lon="4.45526986374">
        <ele>11.2</ele>
        <time>2019-07-14T12:39:06Z</time>
      </trkpt>
      <trkpt lat="51.232315548916" lon="4.456164715384">
        <ele>10</ele>
        <time>2019-07-14T12:39:18Z</time>
      </trkpt>
      <trkpt lat="51.232304065713" lon="4.456862843835">
        <ele>6.6</ele>
        <time>2019-07-14T12:39:30Z</time>
      </trkpt>
      <trkpt lat="51.231871978768" lon="4.456537123201">
        <ele>0</ele>
        <time>2019-07-14T12:39:40Z</time>
      </trkpt>
      <trkpt lat="51.231391276803" lon="4.456063126756">
        <ele>0</ele>
        <time>2019-07-14T12:39:53Z</time>
      </trkpt>
      <trkpt lat="51.231331681494" lon="4.455950809296">
        <ele>0</ele>
        <time>2019-07-14T12:39:54Z</time>
      </trkpt>
      <trkpt lat="51.231311481115" lon="4.455881993897">
        <ele>0</ele>
        <time>2019-07-14T12:39:56Z</time>
      </trkpt>
      <trkpt lat="51.231198493103" lon="4.454977586887">
        <ele>0</ele>
        <time>2019-07-14T12:40:06Z</time>
      </trkpt>
      <trkpt lat="51.231068322196" lon="4.454128668055">
        <ele>0</ele>
        <time>2019-07-14T12:40:15Z</time>
      </trkpt>
      <trkpt lat="51.230956675288" lon="4.453258794473">
        <ele>2.2</ele>
        <time>2019-07-14T12:40:25Z</time>
      </trkpt>
      <trkpt lat="51.230806890735" lon="4.452367044132">
        <ele>3.4</ele>
        <time>2019-07-14T12:40:35Z</time>
      </trkpt>
      <trkpt lat="51.230666074815" lon="4.451484765338">
        <ele>4.8</ele>
        <time>2019-07-14T12:40:45Z</time>
      </trkpt>
      <trkpt lat="51.230470189812" lon="4.450758557522">
        <ele>2</ele>
        <time>2019-07-14T12:40:54Z</time>
      </trkpt>
      <trkpt lat="51.230364410234" lon="4.450699465127">
        <ele>2.6</ele>
        <time>2019-07-14T12:40:57Z</time>
      </trkpt>
      <trkpt lat="51.229804164038" lon="4.450911611016">
        <ele>5.8</ele>
        <time>2019-07-14T12:41:07Z</time>
      </trkpt>
      <trkpt lat="51.229697210994" lon="4.450768280526">
        <ele>5.2</ele>
        <time>2019-07-14T12:41:10Z</time>
      </trkpt>
      <trkpt lat="51.229549773373" lon="4.449905280102">
        <ele>5</ele>
        <time>2019-07-14T12:41:19Z</time>
      </trkpt>
      <trkpt lat="51.229430415117" lon="4.4490454648">
        <ele>6</ele>
        <time>2019-07-14T12:41:28Z</time>
      </trkpt>
      <trkpt lat="51.229368891971" lon="4.448802138243">
        <ele>5.4</ele>
        <time>2019-07-14T12:41:31Z</time>
      </trkpt>
      <trkpt lat="51.228990700643" lon="4.448110966769">
        <ele>2</ele>
        <time>2019-07-14T12:41:41Z</time>
      </trkpt>
      <trkpt lat="51.228903025969" lon="4.447970569944">
        <ele>0</ele>
        <time>2019-07-14T12:41:42Z</time>
      </trkpt>
      <trkpt lat="51.22886606179" lon="4.447900161984">
        <ele>0</ele>
        <time>2019-07-14T12:41:44Z</time>
      </trkpt>
      <trkpt lat="51.228722312205" lon="4.447615931755">
        <ele>0</ele>
        <time>2019-07-14T12:41:48Z</time>
      </trkpt>
      <trkpt lat="51.228658945041" lon="4.447564047794">
        <ele>0</ele>
        <time>2019-07-14T12:41:51Z</time>
      </trkpt>
      <trkpt lat="51.228667326941" lon="4.447648621165">
        <ele>0.4</ele>
        <time>2019-07-14T12:41:54Z</time>
      </trkpt>
      <trkpt lat="51.22898089382" lon="4.448191935923">
        <ele>1.2</ele>
        <time>2019-07-14T12:42:04Z</time>
      </trkpt>
    </trkseg>
  </trk>
</gpx>